createdAt,value
2018-12-09T00:02:00.320Z,7.63
2018-12-09T00:04:28.801Z,7.71
2018-12-09T00:06:57.396Z,7.67
2018-12-09T00:09:25.690Z,7.67
2018-12-09T00:11:54.581Z,7.70
2018-12-09T00:14:22.791Z,7.77
2018-12-09T00:16:50.977Z,7.69
2018-12-09T00:19:19.381Z,7.71
2018-12-09T00:21:47.909Z,7.66
2018-12-09T00:24:16.447Z,7.63
2018-12-09T00:26:46.175Z,7.68
2018-12-09T00:29:14.487Z,7.65
2018-12-09T00:31:43.393Z,7.62
2018-12-09T00:34:11.708Z,7.75
2018-12-09T00:36:39.964Z,7.66
2018-12-09T00:39:09.168Z,7.59
2018-12-09T00:41:39.460Z,7.57
2018-12-09T00:44:09.276Z,7.43
2018-12-09T00:46:39.800Z,7.36
2018-12-09T00:49:09.158Z,7.36
2018-12-09T00:51:39.670Z,7.29
2018-12-09T00:54:07.899Z,7.28
2018-12-09T00:56:37.199Z,7.24
2018-12-09T00:59:08.256Z,7.27
2018-12-09T01:01:38.469Z,7.30
2018-12-09T01:04:08.996Z,7.42
2018-12-09T01:06:38.877Z,7.44
2018-12-09T01:09:09.244Z,7.33
2018-12-09T01:11:40.539Z,7.27
2018-12-09T01:14:09.817Z,7.17
2018-12-09T01:16:40.441Z,7.15
2018-12-09T01:19:09.800Z,7.28
2018-12-09T01:21:40.316Z,7.39
2018-12-09T01:24:09.607Z,7.33
2018-12-09T01:26:39.468Z,7.35
2018-12-09T01:29:09.449Z,7.29
2018-12-09T01:31:39.307Z,7.34
2018-12-09T01:34:09.077Z,7.28
2018-12-09T01:36:37.381Z,7.31
2018-12-09T01:39:06.527Z,7.26
2018-12-09T01:41:34.831Z,7.25
2018-12-09T01:44:03.523Z,7.24
2018-12-09T01:46:32.277Z,7.32
2018-12-09T01:49:00.721Z,7.33
2018-12-09T01:51:28.900Z,7.27
2018-12-09T01:54:13.488Z,7.24
2018-12-09T01:56:42.204Z,7.32
2018-12-09T01:59:10.630Z,7.36
2018-12-09T02:01:40.212Z,7.28
2018-12-09T02:04:09.907Z,7.14
2018-12-09T02:06:40.010Z,7.16
2018-12-09T02:09:10.640Z,7.18
2018-12-09T02:11:40.359Z,7.18
2018-12-09T02:14:10.644Z,7.05
2018-12-09T02:16:39.969Z,7.06
2018-12-09T02:19:26.656Z,7.01
2018-12-09T02:21:55.685Z,6.97
2018-12-09T02:24:23.976Z,7.04
2018-12-09T02:26:52.173Z,7.08
2018-12-09T02:29:20.531Z,7.08
2018-12-09T02:31:49.229Z,7.07
2018-12-09T02:34:17.386Z,7.09
2018-12-09T02:36:45.601Z,7.06
2018-12-09T02:39:14.340Z,7.06
2018-12-09T02:41:42.615Z,7.13
2018-12-09T02:44:11.012Z,7.01
2018-12-09T02:46:39.301Z,7.01
2018-12-09T02:49:07.472Z,6.90
2018-12-09T02:51:35.978Z,6.83
2018-12-09T02:54:04.501Z,6.68
2018-12-09T02:56:33.860Z,6.66
2018-12-09T02:59:02.186Z,6.69
2018-12-09T03:01:30.567Z,6.64
2018-12-09T03:03:58.842Z,6.65
2018-12-09T03:06:27.019Z,6.55
2018-12-09T03:08:55.405Z,6.54
2018-12-09T03:11:23.686Z,6.55
2018-12-09T03:13:51.943Z,6.61
2018-12-09T03:16:20.125Z,6.51
2018-12-09T03:18:48.486Z,6.54
2018-12-09T03:21:16.782Z,6.46
2018-12-09T03:23:45.025Z,6.37
2018-12-09T03:26:13.216Z,6.30
2018-12-09T03:28:41.495Z,6.29
2018-12-09T03:31:10.178Z,6.28
2018-12-09T03:33:39.245Z,6.27
2018-12-09T03:36:07.515Z,6.22
2018-12-09T03:38:35.786Z,6.15
2018-12-09T03:41:04.208Z,6.10
2018-12-09T03:43:32.479Z,6.14
2018-12-09T03:46:00.880Z,6.13
2018-12-09T03:48:29.045Z,6.08
2018-12-09T03:50:57.316Z,6.01
2018-12-09T03:53:25.504Z,6.01
2018-12-09T03:55:53.754Z,5.99
2018-12-09T03:58:21.945Z,6.01
2018-12-09T04:00:50.212Z,6.11
2018-12-09T04:03:18.485Z,6.14
2018-12-09T04:05:46.861Z,6.16
2018-12-09T04:08:15.246Z,6.26
2018-12-09T04:10:43.843Z,6.28
2018-12-09T04:13:12.198Z,6.30
2018-12-09T04:15:41.423Z,6.35
2018-12-09T04:18:10.182Z,6.33
2018-12-09T04:20:38.433Z,6.22
2018-12-09T04:23:06.721Z,6.21
2018-12-09T04:25:35.012Z,6.17
2018-12-09T04:28:03.285Z,6.13
2018-12-09T04:30:31.466Z,6.08
2018-12-09T04:32:59.653Z,6.03
2018-12-09T04:35:28.036Z,5.97
2018-12-09T04:37:56.288Z,6.01
2018-12-09T04:40:24.554Z,6.02
2018-12-09T04:42:52.844Z,6.00
2018-12-09T04:45:21.155Z,6.03
2018-12-09T04:47:49.516Z,5.98
2018-12-09T04:50:17.807Z,5.95
2018-12-09T04:52:46.546Z,5.89
2018-12-09T04:55:14.721Z,5.89
2018-12-09T04:57:42.896Z,5.89
2018-12-09T05:00:22.724Z,5.88
2018-12-09T05:02:51.426Z,5.84
2018-12-09T05:05:19.611Z,5.96
2018-12-09T05:07:47.782Z,6.03
2018-12-09T05:10:15.949Z,5.88
2018-12-09T05:12:44.154Z,6.01
2018-12-09T05:15:12.584Z,6.02
2018-12-09T05:17:40.794Z,6.04
2018-12-09T05:20:09.069Z,6.03
2018-12-09T05:22:37.337Z,6.10
2018-12-09T05:25:05.702Z,6.06
2018-12-09T05:27:34.055Z,5.99
2018-12-09T05:30:02.256Z,6.08
2018-12-09T05:32:30.533Z,6.01
2018-12-09T05:34:58.718Z,6.15
2018-12-09T05:37:27.867Z,6.12
2018-12-09T05:39:56.795Z,6.07
2018-12-09T05:42:26.414Z,6.10
2018-12-09T05:44:56.184Z,6.09
2018-12-09T05:47:26.680Z,6.15
2018-12-09T05:49:56.992Z,6.12
2018-12-09T05:52:26.701Z,6.06
2018-12-09T05:54:56.760Z,6.12
2018-12-09T05:57:25.077Z,6.06
2018-12-09T05:59:53.345Z,6.09
2018-12-09T06:02:33.001Z,6.04
2018-12-09T06:05:01.347Z,6.07
2018-12-09T06:07:29.616Z,6.12
2018-12-09T06:09:57.917Z,6.19
2018-12-09T06:12:26.083Z,6.16
2018-12-09T06:14:54.369Z,6.21
2018-12-09T06:17:22.544Z,6.19
2018-12-09T06:19:50.806Z,6.14
2018-12-09T06:22:19.086Z,6.29
2018-12-09T06:24:47.342Z,6.16
2018-12-09T06:27:15.540Z,6.09
2018-12-09T06:29:43.799Z,6.07
2018-12-09T06:32:11.956Z,6.12
2018-12-09T06:34:40.788Z,6.14
2018-12-09T06:37:08.950Z,6.11
2018-12-09T06:39:37.263Z,6.16
2018-12-09T06:42:05.433Z,6.21
2018-12-09T06:44:33.785Z,6.21
2018-12-09T06:47:03.343Z,6.28
2018-12-09T06:49:31.557Z,6.24
2018-12-09T06:51:59.729Z,6.28
2018-12-09T06:54:27.951Z,6.27
2018-12-09T06:56:56.120Z,6.28
2018-12-09T06:59:24.763Z,6.23
2018-12-09T07:01:53.042Z,6.26
2018-12-09T07:04:21.269Z,6.25
2018-12-09T07:06:49.486Z,6.21
2018-12-09T07:09:17.769Z,6.20
2018-12-09T07:11:46.035Z,6.07
2018-12-09T07:14:14.211Z,6.03
2018-12-09T07:16:42.448Z,5.97
2018-12-09T07:19:10.620Z,5.90
2018-12-09T07:21:38.881Z,5.84
2018-12-09T07:24:07.123Z,5.86
2018-12-09T07:26:35.469Z,5.83
2018-12-09T07:29:03.754Z,5.82
2018-12-09T07:31:32.058Z,5.77
2018-12-09T07:34:00.321Z,5.71
2018-12-09T07:36:28.604Z,5.72
2018-12-09T07:38:57.059Z,5.70
2018-12-09T07:41:25.468Z,5.68
2018-12-09T07:43:53.728Z,5.67
2018-12-09T07:46:21.943Z,5.76
2018-12-09T07:48:50.158Z,5.65
2018-12-09T07:51:18.549Z,5.59
2018-12-09T07:53:47.036Z,5.55
2018-12-09T07:56:15.311Z,5.51
2018-12-09T07:58:43.833Z,5.51
2018-12-09T08:01:12.116Z,5.54
2018-12-09T08:03:40.351Z,5.57
2018-12-09T08:06:09.084Z,5.67
2018-12-09T08:08:37.306Z,5.63
2018-12-09T08:11:05.574Z,5.66
2018-12-09T08:13:33.777Z,5.68
2018-12-09T08:16:02.010Z,5.67
2018-12-09T08:18:30.195Z,5.69
2018-12-09T08:20:58.745Z,5.69
2018-12-09T08:23:26.953Z,5.70
2018-12-09T08:25:55.204Z,5.70
2018-12-09T08:28:23.410Z,5.78
2018-12-09T08:30:51.584Z,5.86
2018-12-09T08:33:19.878Z,5.87
2018-12-09T08:35:49.619Z,5.87
2018-12-09T08:38:17.852Z,5.87
2018-12-09T08:40:46.052Z,5.92
2018-12-09T08:43:14.296Z,5.98
2018-12-09T08:45:42.465Z,6.08
2018-12-09T08:48:10.760Z,6.07
2018-12-09T08:50:38.993Z,6.10
2018-12-09T08:53:07.194Z,6.14
2018-12-09T08:55:35.400Z,6.19
2018-12-09T08:58:03.606Z,6.22
2018-12-09T09:00:31.913Z,6.21
2018-12-09T09:03:00.203Z,6.21
2018-12-09T09:05:28.376Z,6.25
2018-12-09T09:07:57.398Z,6.27
2018-12-09T09:10:25.554Z,6.29
2018-12-09T09:12:54.735Z,6.36
2018-12-09T09:15:22.922Z,6.51
2018-12-09T09:17:51.092Z,6.54
2018-12-09T09:20:19.312Z,6.49
2018-12-09T09:22:47.538Z,6.49
2018-12-09T09:25:15.718Z,6.52
2018-12-09T09:27:43.925Z,6.48
2018-12-09T09:30:12.213Z,6.53
2018-12-09T09:32:40.433Z,6.50
2018-12-09T09:35:08.697Z,6.48
2018-12-09T09:37:36.882Z,6.55
2018-12-09T09:40:07.605Z,6.61
2018-12-09T09:42:35.814Z,6.53
2018-12-09T09:45:05.405Z,6.47
2018-12-09T09:47:33.677Z,6.45
2018-12-09T09:50:02.249Z,6.51
2018-12-09T09:52:30.536Z,6.56
2018-12-09T09:54:59.048Z,6.57
2018-12-09T09:57:27.317Z,6.64
2018-12-09T09:59:55.558Z,6.75
2018-12-09T10:02:23.869Z,6.76
2018-12-09T10:04:52.095Z,6.84
2018-12-09T10:07:21.502Z,6.88
2018-12-09T10:09:49.818Z,6.94
2018-12-09T10:12:18.181Z,6.96
2018-12-09T10:14:46.505Z,7.02
2018-12-09T10:17:15.476Z,7.01
2018-12-09T10:19:43.688Z,6.99
2018-12-09T10:22:11.869Z,7.02
2018-12-09T10:24:40.043Z,6.98
2018-12-09T10:27:08.248Z,6.96
2018-12-09T10:29:36.449Z,6.96
2018-12-09T10:32:06.437Z,7.14
2018-12-09T10:34:38.750Z,7.14
2018-12-09T10:37:05.352Z,7.15
2018-12-09T10:39:35.402Z,7.20
2018-12-09T10:42:05.399Z,7.27
2018-12-09T10:44:33.571Z,7.24
2018-12-09T10:47:02.876Z,7.43
2018-12-09T10:49:31.701Z,7.52
2018-12-09T10:51:59.932Z,7.66
2018-12-09T10:54:29.420Z,7.61
2018-12-09T10:56:57.808Z,7.67
2018-12-09T10:59:26.086Z,7.57
2018-12-09T11:01:56.693Z,7.75
2018-12-09T11:04:24.949Z,7.59
2018-12-09T11:07:00.103Z,7.47
2018-12-09T11:09:28.440Z,7.36
2018-12-09T11:11:56.705Z,7.38
2018-12-09T11:14:25.019Z,7.24
2018-12-09T11:16:53.375Z,7.30
2018-12-09T11:19:22.138Z,7.35
2018-12-09T11:21:50.440Z,7.39
2018-12-09T11:24:18.642Z,7.36
2018-12-09T11:26:46.952Z,7.36
2018-12-09T11:29:15.114Z,7.48
2018-12-09T11:31:43.427Z,7.53
2018-12-09T11:34:11.653Z,7.57
2018-12-09T11:36:40.267Z,7.56
2018-12-09T11:39:09.415Z,7.71
2018-12-09T11:41:38.069Z,7.68
2018-12-09T11:44:06.348Z,7.64
2018-12-09T11:46:34.551Z,7.52
2018-12-09T11:49:03.837Z,7.53
2018-12-09T11:51:32.205Z,7.55
2018-12-09T11:54:00.613Z,7.58
2018-12-09T11:56:29.505Z,7.62
2018-12-09T11:58:57.824Z,7.63
2018-12-09T12:01:25.984Z,7.59
2018-12-09T12:03:54.152Z,7.55
2018-12-09T12:06:23.150Z,7.50
2018-12-09T12:08:51.702Z,7.54
2018-12-09T12:11:20.479Z,7.45
2018-12-09T12:13:48.798Z,7.42
2018-12-09T12:16:17.050Z,7.34
2018-12-09T12:18:45.324Z,7.28
2018-12-09T12:21:13.597Z,7.18
2018-12-09T12:23:42.002Z,7.15
2018-12-09T12:26:10.690Z,7.15
2018-12-09T12:28:38.864Z,7.04
2018-12-09T12:31:07.098Z,7.02
2018-12-09T12:33:35.353Z,7.03
2018-12-09T12:36:03.521Z,7.15
2018-12-09T12:38:31.715Z,7.06
2018-12-09T12:41:00.012Z,6.86
2018-12-09T12:43:28.406Z,6.68
2018-12-09T12:45:56.636Z,6.58
2018-12-09T12:48:24.801Z,6.56
2018-12-09T12:50:53.271Z,6.74
2018-12-09T12:53:21.872Z,6.73
2018-12-09T12:55:50.660Z,6.61
2018-12-09T12:58:18.990Z,6.57
2018-12-09T13:00:48.055Z,6.54
2018-12-09T13:03:17.015Z,6.58
2018-12-09T13:05:46.037Z,6.52
2018-12-09T13:08:15.375Z,6.48
2018-12-09T13:10:44.360Z,6.30
2018-12-09T13:13:13.497Z,6.38
2018-12-09T13:15:42.492Z,6.38
2018-12-09T13:18:11.571Z,6.29
2018-12-09T13:20:40.421Z,6.24
2018-12-09T13:23:10.359Z,6.24
2018-12-09T13:25:38.947Z,6.25
2018-12-09T13:28:08.004Z,6.40
2018-12-09T13:30:36.441Z,6.63
2018-12-09T13:33:04.845Z,6.77
2018-12-09T13:35:33.346Z,7.10
2018-12-09T13:38:04.918Z,7.37
2018-12-09T13:40:34.837Z,7.40
2018-12-09T13:43:03.018Z,7.22
2018-12-09T13:45:31.974Z,7.20
2018-12-09T13:48:00.805Z,7.20
2018-12-09T13:50:29.212Z,7.20
2018-12-09T13:52:57.496Z,7.37
2018-12-09T13:55:25.876Z,7.58
2018-12-09T13:57:54.155Z,7.58
2018-12-09T14:00:23.390Z,7.45
2018-12-09T14:02:51.588Z,7.35
2018-12-09T14:05:20.017Z,7.47
2018-12-09T14:07:48.214Z,7.37
2018-12-09T14:10:16.412Z,7.31
2018-12-09T14:12:44.721Z,7.21
2018-12-09T14:15:14.074Z,7.20
2018-12-09T14:17:42.237Z,7.11
2018-12-09T14:20:10.900Z,7.05
2018-12-09T14:22:39.155Z,6.96
2018-12-09T14:25:07.677Z,6.88
2018-12-09T14:27:36.556Z,6.84
2018-12-09T14:30:06.155Z,6.89
2018-12-09T14:32:34.779Z,6.81
2018-12-09T14:35:04.581Z,6.81
2018-12-09T14:37:32.819Z,6.97
2018-12-09T14:40:01.561Z,7.28
2018-12-09T14:42:30.685Z,7.48
2018-12-09T14:44:58.957Z,7.58
2018-12-09T14:47:28.122Z,7.42
2018-12-09T14:49:56.363Z,7.24
2018-12-09T14:52:24.766Z,7.15
2018-12-09T14:54:53.466Z,7.16
2018-12-09T14:57:21.751Z,7.08
2018-12-09T14:59:50.116Z,7.19
2018-12-09T15:02:18.457Z,7.12
2018-12-09T15:04:46.867Z,7.08
2018-12-09T15:07:15.114Z,6.96
2018-12-09T15:09:43.990Z,7.09
2018-12-09T15:12:12.759Z,7.09
2018-12-09T15:14:41.347Z,6.99
2018-12-09T15:17:09.874Z,6.87
2018-12-09T15:19:38.139Z,6.76
2018-12-09T15:22:06.391Z,6.68
2018-12-09T15:24:41.401Z,6.55
2018-12-09T15:27:05.096Z,6.66
2018-12-09T15:29:33.999Z,6.54
2018-12-09T15:32:02.275Z,6.63
2018-12-09T15:34:30.514Z,6.53
2018-12-09T15:36:58.684Z,6.54
2018-12-09T15:39:26.880Z,6.57
2018-12-09T15:41:56.240Z,6.43
2018-12-09T15:44:24.598Z,6.41
2018-12-09T15:46:52.820Z,6.40
2018-12-09T15:49:21.993Z,6.35
2018-12-09T15:51:50.162Z,6.22
2018-12-09T15:54:18.942Z,6.16
2018-12-09T15:56:47.131Z,6.14
2018-12-09T15:59:15.294Z,6.17
2018-12-09T16:01:43.478Z,6.13
2018-12-09T16:04:11.648Z,6.33
2018-12-09T16:06:39.966Z,6.39
2018-12-09T16:09:08.790Z,6.22
2018-12-09T16:11:36.978Z,6.21
2018-12-09T16:14:05.174Z,6.13
2018-12-09T16:16:33.368Z,6.05
2018-12-09T16:19:01.713Z,6.12
2018-12-09T16:21:29.909Z,6.11
2018-12-09T16:23:58.283Z,6.10
2018-12-09T16:26:27.224Z,6.07
2018-12-09T16:28:55.465Z,6.12
2018-12-09T16:31:24.076Z,6.22
2018-12-09T16:33:52.412Z,6.23
2018-12-09T16:36:20.647Z,6.21
2018-12-09T16:38:49.390Z,6.25
2018-12-09T16:41:17.712Z,6.17
2018-12-09T16:43:46.543Z,6.10
2018-12-09T16:46:14.737Z,6.25
2018-12-09T16:48:43.368Z,6.22
2018-12-09T16:51:11.707Z,6.20
2018-12-09T16:53:39.879Z,6.05
2018-12-09T16:56:08.153Z,6.01
2018-12-09T16:58:36.337Z,5.97
2018-12-09T17:01:04.550Z,6.01
2018-12-09T17:03:32.930Z,5.98
2018-12-09T17:06:01.092Z,5.95
2018-12-09T17:08:29.285Z,5.85
2018-12-09T17:10:57.575Z,5.86
2018-12-09T17:13:25.750Z,5.75
2018-12-09T17:15:53.936Z,5.67
2018-12-09T17:18:22.128Z,5.72
2018-12-09T17:20:50.385Z,5.89
2018-12-09T17:23:18.575Z,5.97
2018-12-09T17:25:46.850Z,6.10
2018-12-09T17:28:15.074Z,6.12
2018-12-09T17:30:43.279Z,6.10
2018-12-09T17:33:11.490Z,6.08
2018-12-09T17:35:39.647Z,6.03
2018-12-09T17:38:07.869Z,6.04
2018-12-09T17:40:36.102Z,6.02
2018-12-09T17:43:04.346Z,6.13
2018-12-09T17:45:32.745Z,6.14
2018-12-09T17:48:02.189Z,5.98
2018-12-09T17:50:30.613Z,5.91
2018-12-09T17:52:58.900Z,5.74
2018-12-09T17:55:27.095Z,5.69
2018-12-09T17:57:55.338Z,5.67
2018-12-09T18:00:23.501Z,5.70
2018-12-09T18:02:51.697Z,5.70
2018-12-09T18:05:19.871Z,5.78
2018-12-09T18:07:48.124Z,5.82
2018-12-09T18:10:16.332Z,5.87
2018-12-09T18:12:48.104Z,5.96
2018-12-09T18:15:19.005Z,5.87
2018-12-09T18:17:47.383Z,5.95
2018-12-09T18:20:15.554Z,6.07
2018-12-09T18:22:43.846Z,5.93
2018-12-09T18:25:12.030Z,5.89
2018-12-09T18:27:40.184Z,5.98
2018-12-09T18:30:08.899Z,6.07
2018-12-09T18:32:37.140Z,6.01
2018-12-09T18:35:05.813Z,5.99
2018-12-09T18:37:34.135Z,5.90
2018-12-09T18:40:02.412Z,5.85
2018-12-09T18:42:30.586Z,5.99
2018-12-09T18:44:58.833Z,5.90
2018-12-09T18:47:27.057Z,5.94
2018-12-09T18:49:55.264Z,5.80
2018-12-09T18:52:23.579Z,5.81
2018-12-09T18:54:51.731Z,6.01
2018-12-09T18:57:19.952Z,6.03
2018-12-09T18:59:48.210Z,5.98
2018-12-09T19:02:16.368Z,5.86
2018-12-09T19:04:44.530Z,5.82
2018-12-09T19:07:12.954Z,5.71
2018-12-09T19:09:41.209Z,5.69
2018-12-09T19:12:09.456Z,5.75
2018-12-09T19:14:37.648Z,5.78
2018-12-09T19:17:05.882Z,5.65
2018-12-09T19:19:34.182Z,5.66
2018-12-09T19:22:03.009Z,5.82
2018-12-09T19:24:31.186Z,5.70
2018-12-09T19:26:59.503Z,5.71
2018-12-09T19:29:27.821Z,5.67
2018-12-09T19:31:56.030Z,5.63
2018-12-09T19:34:24.220Z,5.60
2018-12-09T19:36:52.429Z,5.51
2018-12-09T19:39:20.654Z,5.53
2018-12-09T19:41:48.822Z,5.49
2018-12-09T19:44:17.975Z,5.43
2018-12-09T19:46:46.178Z,5.43
2018-12-09T19:49:14.405Z,5.33
2018-12-09T19:51:42.732Z,5.40
2018-12-09T19:54:10.971Z,5.45
2018-12-09T19:56:39.141Z,5.50
2018-12-09T19:59:07.423Z,5.45
2018-12-09T20:01:35.613Z,5.73
2018-12-09T20:04:03.877Z,5.61
2018-12-09T20:06:32.158Z,5.51
2018-12-09T20:09:00.321Z,5.47
2018-12-09T20:11:28.561Z,5.55
2018-12-09T20:13:56.762Z,5.69
2018-12-09T20:16:24.991Z,5.75
2018-12-09T20:18:53.540Z,5.70
2018-12-09T20:21:21.798Z,5.59
2018-12-09T20:23:50.055Z,5.60
2018-12-09T20:26:18.241Z,5.68
2018-12-09T20:28:46.525Z,5.65
2018-12-09T20:31:14.721Z,5.48
2018-12-09T20:33:42.894Z,5.30
2018-12-09T20:36:11.094Z,5.27
2018-12-09T20:38:39.301Z,5.39
2018-12-09T20:41:07.575Z,5.41
2018-12-09T20:43:35.767Z,5.39
2018-12-09T20:46:04.124Z,5.42
2018-12-09T20:48:32.973Z,5.55
2018-12-09T20:51:01.114Z,5.46
2018-12-09T20:53:29.351Z,5.74
2018-12-09T20:55:57.653Z,5.64
2018-12-09T20:58:25.906Z,5.66
2018-12-09T21:00:54.197Z,5.57
2018-12-09T21:03:22.441Z,5.52
2018-12-09T21:05:50.609Z,5.71
2018-12-09T21:08:18.773Z,5.75
2018-12-09T21:10:47.033Z,5.69
2018-12-09T21:13:15.227Z,5.64
2018-12-09T21:15:43.388Z,5.78
2018-12-09T21:18:11.624Z,5.66
2018-12-09T21:20:39.820Z,6.02
2018-12-09T21:23:08.188Z,5.87
2018-12-09T21:25:36.458Z,6.03
2018-12-09T21:28:04.701Z,5.94
2018-12-09T21:30:33.201Z,5.96
2018-12-09T21:33:01.475Z,5.93
2018-12-09T21:35:29.640Z,5.97
2018-12-09T21:37:58.008Z,5.98
2018-12-09T21:40:26.178Z,6.17
2018-12-09T21:42:54.464Z,6.23
2018-12-09T21:45:23.269Z,6.22
2018-12-09T21:47:51.440Z,6.10
2018-12-09T21:50:19.699Z,6.01
2018-12-09T21:52:47.897Z,5.98
2018-12-09T21:55:16.071Z,5.89
2018-12-09T21:57:44.270Z,5.88
2018-12-09T22:00:12.609Z,5.83
2018-12-09T22:02:40.782Z,5.88
2018-12-09T22:05:09.093Z,6.13
2018-12-09T22:07:37.337Z,5.99
2018-12-09T22:10:06.254Z,5.84
2018-12-09T22:12:34.501Z,5.86
2018-12-09T22:15:02.999Z,5.76
2018-12-09T22:17:31.283Z,5.79
2018-12-09T22:19:59.551Z,5.60
2018-12-09T22:22:27.793Z,5.58
2018-12-09T22:24:56.006Z,5.59
2018-12-09T22:27:24.289Z,5.64
2018-12-09T22:29:54.409Z,5.46
2018-12-09T22:32:26.132Z,5.51
2018-12-09T22:34:55.023Z,5.78
2018-12-09T22:37:25.566Z,5.73
2018-12-09T22:39:54.535Z,5.63
2018-12-09T22:42:25.408Z,5.62
2018-12-09T22:44:55.124Z,5.59
2018-12-09T22:47:25.222Z,5.60
2018-12-09T22:49:56.398Z,5.45
2018-12-09T22:52:24.847Z,5.41
2018-12-09T22:54:55.479Z,5.28
2018-12-09T22:57:25.365Z,5.38
2018-12-09T22:59:54.700Z,5.28
2018-12-09T23:02:29.599Z,5.26
2018-12-09T23:04:57.878Z,5.30
2018-12-09T23:07:31.420Z,5.23
2018-12-09T23:09:59.741Z,5.15
2018-12-09T23:12:28.056Z,5.04
2018-12-09T23:14:56.312Z,4.95
2018-12-09T23:17:25.303Z,4.87
2018-12-09T23:19:55.291Z,4.95
2018-12-09T23:22:25.133Z,4.99
2018-12-09T23:24:55.844Z,4.95
2018-12-09T23:27:25.456Z,4.84
2018-12-09T23:29:55.456Z,4.73
2018-12-09T23:32:25.216Z,4.85
2018-12-09T23:34:54.486Z,4.83
2018-12-09T23:37:25.223Z,4.81
2018-12-09T23:39:55.537Z,4.75
2018-12-09T23:42:25.361Z,4.70
2018-12-09T23:44:55.313Z,4.69
2018-12-09T23:47:25.006Z,4.79
2018-12-09T23:49:55.521Z,4.91
2018-12-09T23:52:25.148Z,4.89
2018-12-09T23:54:54.818Z,4.92
2018-12-09T23:57:23.952Z,4.92
2018-12-09T23:59:52.099Z,4.84
